Alinda, Pennsylvania
Current Conditions -  °F | °C
As of 1:56 AM on Wednesday 22 Oct 2014 (Local Time) from KCXY Reporting Station
Overcast Overcast  
Wind Chill: 56°   Ceiling: 4100
Heat Index: 56°   Visibility: 10mi
Dew Point: 47°   Wind: 6mph
Humidity: 72%   Direction: 330°NNW
Pressure: 29.91"   Gusts: NA
Location:  40.3086°N, 77.3363°W
Report Text: KCXY 220556Z AUTO 33005KT 10SM BKN041 OVC055 13/08 A2991 RMK AO2 SLP128 T01330083 10133 20111 56008
Loading
Personal Weather Stations






























Interactive Weather Map
Tropical Storm Tracking
New forecast layout! Learn more

10-Day Weather Forecast

Advertisements
Track Severe Weather on mobile